Terminal Aerodrome Forecast
Issued by NWS

Home | Current Version | Previous Version | Text Only | Print | Product List | Glossary On
Versions: 1 2 3 4 5 6 7 8 9 10 11 12 13 14 15
193
FTUS44 KLZK 281730
TAFHOT
TAF
KHOT 281730Z 2818/2918 14004KT P6SM SKC
     FM290200 09005KT P6SM BKN250
     FM290900 10006KT P6SM OVC040
     FM291400 11008KT P6SM OVC020 PROB30 2914/2918 4SM -TSRA BR
      OVC010CB=

USA.gov is the U.S. government's official web portal to all federal, state and local government web resources and services.